Bachir Chihani — 7TJA — position and weather

sailwx.info

Track history (hours):
 
Tides and Currents Weather Stations Pressure Air Temp Water Temp Dewpoint Dewpoint Depression Visibility Wind Speed Wind Dir Waves Ship Positions

Bachir Chihani

Last reported at 2015-Mar-26 02:20 UTC. Time now 2015-Mar-27 01:55 UTC.
Position N 36°42' E 013°17'.

Length 280 m; draft 9.5 m.

Type: Ship (hazmat cat C). MMSI: 605106010.

Date/timePositionNaut miles runAvg speedWind from/ knotsBaromVisibWave heightAir tempDewpointWater temp
2015-Mar-26 02:20N 36°42' E 013°17'1013.5
2015-Mar-26 01:33N 36°40' E 013°30'1313.2
2015-Mar-26 00:33N 36°37' E 013°46'1313.3
2015-Mar-25 23:33N 36°34' E 014°02'1313.4
2015-Mar-25 22:33N 36°31' E 014°19'1313.3
2015-Mar-25 21:34N 36°28' E 014°35'1313.4
2015-Mar-25 20:34N 36°26' E 014°51'1413.3
2015-Mar-25 19:32N 36°23' E 015°08'1313.3
2015-Mar-25 18:34N 36°21' E 015°24'45612.3
2015-Mar-24 05:32N 37°12' E 024°50'1312.8
2015-Mar-24 04:29N 37°16' E 025°06'1213.0
2015-Mar-24 03:33N 37°18' E 025°21'  
2015-Mar-20 13:17N 37°47' E 025°45'810.9
2015-Mar-20 12:33N 37°39' E 025°45'1410.7
2015-Mar-20 11:17N 37°26' E 025°45'16 9.0
2015-Mar-20 09:34N 37°19' E 025°27'1111.2
2015-Mar-20 08:34N 37°17' E 025°13'1111.1
2015-Mar-20 07:34N 37°16' E 024°59'50713.0
2015-Mar-18 16:31N 36°28' E 014°29'1313.5
2015-Mar-18 15:33N 36°30' E 014°13'1413.9
2015-Mar-18 14:32N 36°33' E 013°56'1413.9
2015-Mar-18 13:33N 36°35' E 013°39'  
Track history (hours):
 
Tides and Currents Weather Stations Pressure Air Temp Water Temp Dewpoint Dewpoint Depression Visibility Wind Speed Wind Dir Waves Ship Positions

Bachir Chihani

Last reported at 2015-Mar-26 02:20 UTC. Time now 2015-Mar-27 01:55 UTC.
Position N 36°42' E 013°17'.

Length 280 m; draft 9.5 m.

Type: Ship (hazmat cat C). MMSI: 605106010.

Date/timePositionNaut miles runAvg speedWind from/ knotsBaromVisibWave heightAir tempDewpointWater temp
2015-Mar-26 02:20N 36°42' E 013°17'1013.5
2015-Mar-26 01:33N 36°40' E 013°30'1313.2
2015-Mar-26 00:33N 36°37' E 013°46'1313.3
2015-Mar-25 23:33N 36°34' E 014°02'1313.4
2015-Mar-25 22:33N 36°31' E 014°19'1313.3
2015-Mar-25 21:34N 36°28' E 014°35'1313.4
2015-Mar-25 20:34N 36°26' E 014°51'1413.3
2015-Mar-25 19:32N 36°23' E 015°08'1313.3
2015-Mar-25 18:34N 36°21' E 015°24'45612.3
2015-Mar-24 05:32N 37°12' E 024°50'1312.8
2015-Mar-24 04:29N 37°16' E 025°06'1213.0
2015-Mar-24 03:33N 37°18' E 025°21'  
2015-Mar-20 13:17N 37°47' E 025°45'810.9
2015-Mar-20 12:33N 37°39' E 025°45'1410.7
2015-Mar-20 11:17N 37°26' E 025°45'16 9.0
2015-Mar-20 09:34N 37°19' E 025°27'1111.2
2015-Mar-20 08:34N 37°17' E 025°13'1111.1
2015-Mar-20 07:34N 37°16' E 024°59'50713.0
2015-Mar-18 16:31N 36°28' E 014°29'1313.5
2015-Mar-18 15:33N 36°30' E 014°13'1413.9
2015-Mar-18 14:32N 36°33' E 013°56'1413.9
2015-Mar-18 13:33N 36°35' E 013°39'  

Dump ship's entire track history